createdAt,value
2022-12-04T00:01:24.857Z,6.30
2022-12-04T00:03:57.833Z,6.40
2022-12-04T00:06:26.714Z,6.30
2022-12-04T00:08:55.502Z,6.30
2022-12-04T00:11:26.498Z,6.30
2022-12-04T00:13:54.758Z,6.40
2022-12-04T00:16:30.246Z,6.30
2022-12-04T00:18:59.027Z,6.30
2022-12-04T00:21:27.460Z,6.20
2022-12-04T00:23:55.895Z,6.30
2022-12-04T00:26:26.909Z,6.30
2022-12-04T00:28:55.989Z,6.20
2022-12-04T00:31:27.481Z,6.30
2022-12-04T00:33:56.096Z,6.30
2022-12-04T00:36:25.724Z,6.30
2022-12-04T00:38:54.418Z,6.30
2022-12-04T00:41:24.997Z,6.30
2022-12-04T00:43:53.653Z,6.30
2022-12-04T00:46:22.268Z,6.30
2022-12-04T00:48:52.537Z,6.30
2022-12-04T00:51:23.311Z,6.30
2022-12-04T00:53:51.939Z,6.30
2022-12-04T00:56:23.130Z,6.30
2022-12-04T00:58:53.372Z,6.30
2022-12-04T01:01:22.564Z,6.30
2022-12-04T01:03:52.400Z,6.30
2022-12-04T01:06:23.030Z,6.40
2022-12-04T01:08:51.917Z,6.30
2022-12-04T01:11:21.380Z,6.30
2022-12-04T01:13:49.464Z,6.30
2022-12-04T01:16:19.222Z,6.30
2022-12-04T01:18:47.703Z,6.30
2022-12-04T01:21:17.912Z,6.30
2022-12-04T01:23:46.344Z,6.40
2022-12-04T01:26:14.721Z,6.30
2022-12-04T01:28:43.368Z,6.20
2022-12-04T01:31:13.777Z,6.30
2022-12-04T01:33:42.581Z,6.20
2022-12-04T01:36:13.024Z,6.30
2022-12-04T01:38:43.046Z,6.30
2022-12-04T01:41:12.900Z,6.30
2022-12-04T01:43:41.412Z,6.30
2022-12-04T01:46:10.379Z,6.30
2022-12-04T01:48:42.708Z,6.30
2022-12-04T01:51:16.358Z,6.30
2022-12-04T01:53:50.619Z,6.30
2022-12-04T01:56:19.777Z,6.20
2022-12-04T01:58:52.310Z,6.30
2022-12-04T02:01:20.699Z,6.30
2022-12-04T02:03:48.934Z,6.30
2022-12-04T02:06:17.544Z,6.30
2022-12-04T02:08:47.184Z,6.30
2022-12-04T02:11:25.266Z,6.20
2022-12-04T02:14:02.038Z,6.20
2022-12-04T02:16:38.590Z,6.20
2022-12-04T02:19:26.182Z,6.20
2022-12-04T02:21:57.039Z,6.10
2022-12-04T02:24:37.247Z,6.20
2022-12-04T02:27:09.764Z,6.30
2022-12-04T02:29:45.727Z,6.20
2022-12-04T02:32:20.101Z,6.20
2022-12-04T02:34:56.713Z,6.20
2022-12-04T02:37:31.433Z,6.20
2022-12-04T02:40:06.152Z,6.20
2022-12-04T02:42:38.082Z,6.30
2022-12-04T02:45:12.169Z,6.30
2022-12-04T02:47:42.958Z,6.20
2022-12-04T02:50:14.630Z,6.10
2022-12-04T02:52:47.798Z,6.20
2022-12-04T02:55:20.145Z,6.20
2022-12-04T02:57:52.819Z,6.20
2022-12-04T03:00:23.425Z,6.20
2022-12-04T03:02:55.029Z,6.20
2022-12-04T03:05:28.245Z,6.20
2022-12-04T03:08:01.070Z,6.20
2022-12-04T03:10:33.378Z,6.10
2022-12-04T03:13:07.321Z,6.10
2022-12-04T03:15:42.242Z,6.10
2022-12-04T03:18:15.830Z,6.20
2022-12-04T03:20:45.661Z,6.20
2022-12-04T03:23:19.085Z,6.20
2022-12-04T03:26:04.347Z,6.20
2022-12-04T03:28:39.774Z,6.20
2022-12-04T03:31:11.590Z,6.20
2022-12-04T03:33:43.263Z,6.20
2022-12-04T03:36:17.307Z,6.10
2022-12-04T03:38:50.747Z,6.20
2022-12-04T03:41:27.053Z,6.20
2022-12-04T03:44:02.235Z,6.20
2022-12-04T03:46:37.452Z,6.20
2022-12-04T03:49:14.133Z,6.20
2022-12-04T03:51:48.589Z,6.20
2022-12-04T03:54:20.743Z,6.20
2022-12-04T03:56:52.862Z,6.20
2022-12-04T03:59:24.968Z,6.20
2022-12-04T04:01:57.149Z,6.10
2022-12-04T04:04:31.412Z,6.20
2022-12-04T04:07:05.910Z,6.20
2022-12-04T04:09:39.905Z,6.20
2022-12-04T04:12:11.416Z,6.20
2022-12-04T04:15:00.544Z,6.20
2022-12-04T04:17:52.116Z,6.20
2022-12-04T04:20:42.751Z,6.20
2022-12-04T04:23:30.197Z,6.20
2022-12-04T04:26:00.885Z,6.20
2022-12-04T04:28:31.393Z,6.20
2022-12-04T04:31:09.186Z,6.10
2022-12-04T04:33:47.102Z,6.10
2022-12-04T04:36:23.516Z,6.10
2022-12-04T04:38:59.951Z,6.10
2022-12-04T04:41:35.169Z,6.10
2022-12-04T04:44:12.830Z,6.20
2022-12-04T04:46:45.707Z,6.20
2022-12-04T04:49:16.917Z,6.20
2022-12-04T04:51:46.084Z,6.20
2022-12-04T04:54:17.760Z,6.10
2022-12-04T04:56:47.392Z,6.10
2022-12-04T04:59:16.154Z,6.10
2022-12-04T05:01:46.820Z,6.10
2022-12-04T05:04:16.383Z,6.10
2022-12-04T05:06:44.430Z,6.10
2022-12-04T05:09:12.513Z,6.10
2022-12-04T05:11:40.665Z,6.10
2022-12-04T05:14:09.474Z,6.00
2022-12-04T05:16:37.833Z,6.10
2022-12-04T05:19:23.310Z,6.10
2022-12-04T05:21:52.787Z,6.10
2022-12-04T05:24:20.898Z,6.10
2022-12-04T05:26:48.968Z,6.10
2022-12-04T05:29:17.527Z,6.10
2022-12-04T05:31:45.702Z,6.10
2022-12-04T05:34:13.848Z,6.10
2022-12-04T05:36:41.991Z,6.10
2022-12-04T05:39:11.416Z,6.10
2022-12-04T05:41:39.468Z,6.20
2022-12-04T05:44:07.543Z,6.10
2022-12-04T05:46:35.655Z,6.10
2022-12-04T05:49:03.709Z,6.10
2022-12-04T05:51:31.798Z,6.10
2022-12-04T05:53:59.867Z,6.10
2022-12-04T05:56:29.339Z,6.10
2022-12-04T05:58:57.474Z,6.10
2022-12-04T06:01:26.082Z,6.10
2022-12-04T06:03:54.200Z,6.10
2022-12-04T06:06:24.127Z,6.00
2022-12-04T06:08:53.406Z,6.10
2022-12-04T06:11:23.779Z,6.10
2022-12-04T06:13:53.522Z,6.10
2022-12-04T06:16:26.539Z,6.10
2022-12-04T06:18:56.525Z,6.10
2022-12-04T06:21:26.837Z,6.20
2022-12-04T06:23:55.262Z,6.10
2022-12-04T06:26:24.443Z,6.10
2022-12-04T06:28:56.780Z,6.10
2022-12-04T06:31:26.269Z,6.10
2022-12-04T06:33:55.752Z,6.00
2022-12-04T06:36:24.642Z,6.10
2022-12-04T06:38:55.357Z,6.10
2022-12-04T06:41:24.237Z,6.10
2022-12-04T06:43:52.532Z,6.20
2022-12-04T06:46:23.757Z,6.10
2022-12-04T06:48:52.837Z,6.10
2022-12-04T06:51:23.070Z,6.10
2022-12-04T06:53:51.973Z,6.10
2022-12-04T06:56:22.739Z,6.10
2022-12-04T06:58:53.366Z,6.10
2022-12-04T07:01:25.225Z,6.10
2022-12-04T07:03:53.723Z,6.10
2022-12-04T07:06:23.479Z,6.00
2022-12-04T07:08:53.914Z,6.10
2022-12-04T07:11:23.146Z,6.00
2022-12-04T07:13:51.887Z,6.10
2022-12-04T07:16:23.323Z,6.10
2022-12-04T07:18:53.659Z,6.20
2022-12-04T07:21:24.334Z,6.10
2022-12-04T07:23:54.048Z,6.10
2022-12-04T07:26:22.487Z,6.10
2022-12-04T07:28:50.705Z,6.20
2022-12-04T07:31:21.365Z,6.20
2022-12-04T07:33:53.393Z,6.20
2022-12-04T07:36:22.946Z,6.20
2022-12-04T07:38:51.837Z,6.20
2022-12-04T07:41:20.747Z,6.20
2022-12-04T07:43:49.295Z,6.20
2022-12-04T07:46:19.469Z,6.20
2022-12-04T07:48:47.611Z,6.20
2022-12-04T07:51:18.991Z,6.20
2022-12-04T07:53:48.081Z,6.20
2022-12-04T07:56:16.952Z,6.20
2022-12-04T07:58:45.394Z,6.20
2022-12-04T08:01:15.045Z,6.20
2022-12-04T08:03:47.968Z,6.20
2022-12-04T08:06:19.144Z,6.20
2022-12-04T08:08:47.292Z,6.20
2022-12-04T08:11:17.349Z,6.20
2022-12-04T08:13:45.953Z,6.20
2022-12-04T08:16:15.463Z,6.20
2022-12-04T08:18:46.828Z,6.20
2022-12-04T08:21:19.261Z,6.20
2022-12-04T08:23:47.903Z,6.20
2022-12-04T08:26:16.382Z,6.20
2022-12-04T08:28:44.490Z,6.20
2022-12-04T08:31:15.732Z,6.20
2022-12-04T08:33:47.353Z,6.30
2022-12-04T08:36:19.175Z,6.30
2022-12-04T08:38:48.451Z,6.30
2022-12-04T08:41:19.854Z,6.30
2022-12-04T08:43:47.962Z,6.30
2022-12-04T08:46:19.969Z,6.30
2022-12-04T08:48:48.525Z,6.30
2022-12-04T08:51:21.289Z,6.40
2022-12-04T08:53:49.662Z,6.30
2022-12-04T08:56:17.734Z,6.30
2022-12-04T08:58:45.796Z,6.40
2022-12-04T09:01:15.651Z,6.50
2022-12-04T09:03:44.783Z,6.40
2022-12-04T09:06:15.566Z,6.40
2022-12-04T09:08:45.206Z,6.40
2022-12-04T09:11:16.380Z,6.40
2022-12-04T09:13:45.910Z,6.40
2022-12-04T09:16:15.806Z,6.40
2022-12-04T09:18:44.278Z,6.40
2022-12-04T09:21:14.680Z,6.40
2022-12-04T09:23:44.872Z,6.40
2022-12-04T09:26:21.506Z,6.40
2022-12-04T09:28:50.708Z,6.40
2022-12-04T09:31:19.445Z,6.40
2022-12-04T09:33:47.686Z,6.40
2022-12-04T09:36:17.001Z,6.40
2022-12-04T09:38:48.220Z,6.40
2022-12-04T09:41:27.892Z,6.40
2022-12-04T09:44:01.130Z,6.40
2022-12-04T09:46:35.264Z,6.40
2022-12-04T09:49:08.009Z,6.40
2022-12-04T09:51:38.455Z,6.40
2022-12-04T09:54:14.082Z,6.40
2022-12-04T09:56:44.504Z,6.50
2022-12-04T09:59:16.409Z,6.50
2022-12-04T10:01:48.060Z,6.50
2022-12-04T10:04:17.116Z,6.50
2022-12-04T10:06:54.149Z,6.50
2022-12-04T10:09:30.321Z,6.50
2022-12-04T10:12:13.524Z,6.50
2022-12-04T10:14:52.029Z,6.60
2022-12-04T10:17:44.755Z,6.50
2022-12-04T10:20:28.182Z,6.50
2022-12-04T10:23:13.594Z,6.50
2022-12-04T10:25:44.640Z,6.60
2022-12-04T10:28:23.706Z,6.50
2022-12-04T10:30:53.023Z,6.60
2022-12-04T10:33:28.763Z,6.60
2022-12-04T10:35:56.993Z,6.70
2022-12-04T10:38:34.020Z,6.70
2022-12-04T10:41:14.680Z,6.70
2022-12-04T10:43:45.637Z,6.70
2022-12-04T10:46:15.616Z,6.60
2022-12-04T10:48:47.270Z,6.60
2022-12-04T10:51:17.011Z,6.60
2022-12-04T10:53:46.446Z,6.70
2022-12-04T10:56:18.521Z,6.60
2022-12-04T10:58:57.301Z,6.70
2022-12-04T11:01:26.130Z,6.70
2022-12-04T11:04:01.241Z,6.70
2022-12-04T11:06:30.253Z,6.70
2022-12-04T11:08:59.579Z,6.70
2022-12-04T11:11:31.921Z,6.70
2022-12-04T11:14:05.397Z,6.80
2022-12-04T11:16:39.631Z,6.70
2022-12-04T11:19:22.252Z,6.70
2022-12-04T11:21:51.295Z,6.70
2022-12-04T11:24:23.702Z,6.70
2022-12-04T11:26:54.216Z,6.70
2022-12-04T11:29:29.951Z,6.70
2022-12-04T11:32:02.811Z,6.80
2022-12-04T11:34:39.775Z,6.80
2022-12-04T11:37:19.474Z,6.70
2022-12-04T11:39:48.338Z,6.80
2022-12-04T11:42:20.089Z,6.80
2022-12-04T11:44:53.710Z,6.80
2022-12-04T11:47:23.990Z,6.90
2022-12-04T11:50:06.012Z,6.90
2022-12-04T11:52:46.978Z,6.90
2022-12-04T11:55:28.602Z,6.90
2022-12-04T11:58:16.545Z,6.80
2022-12-04T12:00:54.789Z,6.80
2022-12-04T12:03:28.605Z,6.90
2022-12-04T12:06:19.343Z,6.90
2022-12-04T12:09:18.769Z,6.90
2022-12-04T12:11:53.026Z,6.90
2022-12-04T12:14:30.636Z,6.80
2022-12-04T12:17:07.692Z,6.80
2022-12-04T12:20:06.661Z,6.80
2022-12-04T12:22:57.848Z,6.90
2022-12-04T12:25:32.353Z,6.80
2022-12-04T12:28:14.151Z,6.80
2022-12-04T12:31:05.772Z,6.80
2022-12-04T12:33:37.804Z,6.70
2022-12-04T12:36:09.547Z,6.70
2022-12-04T12:38:44.677Z,6.70
2022-12-04T12:41:15.737Z,6.80
2022-12-04T12:43:49.551Z,6.80
2022-12-04T12:46:23.520Z,6.80
2022-12-04T12:48:58.657Z,6.80
2022-12-04T12:51:35.518Z,6.80
2022-12-04T12:54:14.161Z,6.80
2022-12-04T12:56:49.408Z,6.90
2022-12-04T12:59:21.974Z,6.90
2022-12-04T13:02:00.678Z,6.80
2022-12-04T13:04:36.386Z,6.90
2022-12-04T13:07:26.158Z,6.90
2022-12-04T13:09:59.083Z,6.80
2022-12-04T13:12:28.593Z,6.80
2022-12-04T13:14:56.688Z,6.80
2022-12-04T13:17:34.100Z,6.80
2022-12-04T13:20:09.908Z,6.80
2022-12-04T13:22:52.386Z,6.80
2022-12-04T13:25:35.877Z,6.70
2022-12-04T13:28:15.947Z,6.80
2022-12-04T13:30:51.427Z,6.80
2022-12-04T13:33:57.582Z,6.80
2022-12-04T13:36:43.439Z,6.70
2022-12-04T13:39:59.980Z,6.70
2022-12-04T13:42:29.978Z,6.70
2022-12-04T13:45:01.696Z,6.70
2022-12-04T13:47:32.812Z,6.70
2022-12-04T13:50:26.310Z,6.70
2022-12-04T13:52:54.836Z,6.70
2022-12-04T13:55:29.464Z,6.70
2022-12-04T13:58:00.547Z,6.70
2022-12-04T14:00:32.460Z,6.70
2022-12-04T14:03:04.122Z,6.60
2022-12-04T14:05:41.463Z,6.60
2022-12-04T14:08:23.520Z,6.70
2022-12-04T14:11:01.755Z,6.70
2022-12-04T14:13:36.685Z,6.70
2022-12-04T14:16:07.796Z,6.80
2022-12-04T14:18:36.023Z,6.80
2022-12-04T14:21:07.180Z,6.70
2022-12-04T14:23:37.776Z,6.80
2022-12-04T14:26:06.598Z,6.80
2022-12-04T14:28:45.099Z,6.70
2022-12-04T14:31:24.328Z,6.80
2022-12-04T14:33:56.109Z,6.80
2022-12-04T14:36:28.343Z,6.70
2022-12-04T14:39:04.497Z,6.70
2022-12-04T14:41:33.578Z,6.70
2022-12-04T14:44:01.834Z,6.70
2022-12-04T14:46:38.902Z,6.70
2022-12-04T14:49:22.789Z,6.70
2022-12-04T14:51:59.945Z,6.70
2022-12-04T14:54:34.269Z,6.70
2022-12-04T14:57:17.519Z,6.60
2022-12-04T14:59:48.219Z,6.70
2022-12-04T15:02:20.401Z,6.60
2022-12-04T15:04:51.297Z,6.60
2022-12-04T15:07:22.758Z,6.70
2022-12-04T15:10:12.715Z,6.60
2022-12-04T15:12:43.811Z,6.60
2022-12-04T15:15:19.437Z,6.60
2022-12-04T15:17:58.181Z,6.60
2022-12-04T15:20:27.165Z,6.70
2022-12-04T15:22:58.817Z,6.60
2022-12-04T15:25:30.681Z,6.60
2022-12-04T15:28:06.843Z,6.60
2022-12-04T15:30:37.190Z,6.60
2022-12-04T15:33:05.968Z,6.60
2022-12-04T15:35:34.987Z,6.60
2022-12-04T15:38:04.580Z,6.60
2022-12-04T15:40:32.579Z,6.60
2022-12-04T15:43:17.226Z,6.60
2022-12-04T15:45:45.650Z,6.60
2022-12-04T15:48:24.839Z,6.60
2022-12-04T15:50:58.033Z,6.60
2022-12-04T15:53:29.530Z,6.60
2022-12-04T15:56:00.587Z,6.60
2022-12-04T15:58:30.701Z,6.60
2022-12-04T16:01:01.105Z,6.70
2022-12-04T16:03:31.939Z,6.70
2022-12-04T16:06:15.981Z,6.60
2022-12-04T16:08:48.198Z,6.60
2022-12-04T16:11:31.361Z,6.60
2022-12-04T16:14:19.332Z,6.50
2022-12-04T16:16:50.697Z,6.60
2022-12-04T16:19:29.135Z,6.60
2022-12-04T16:21:57.411Z,6.60
2022-12-04T16:24:27.173Z,6.60
2022-12-04T16:26:56.645Z,6.60
2022-12-04T16:29:25.323Z,6.60
2022-12-04T16:31:57.075Z,6.60
2022-12-04T16:34:29.206Z,6.60
2022-12-04T16:36:57.244Z,6.60
2022-12-04T16:39:26.683Z,6.60
2022-12-04T16:41:54.669Z,6.60
2022-12-04T16:44:22.680Z,6.60
2022-12-04T16:46:52.209Z,6.60
2022-12-04T16:49:20.271Z,6.60
2022-12-04T16:51:50.757Z,6.60
2022-12-04T16:54:18.830Z,6.60
2022-12-04T16:56:48.222Z,6.60
2022-12-04T16:59:16.258Z,6.60
2022-12-04T17:01:46.671Z,6.60
2022-12-04T17:04:15.349Z,6.60
2022-12-04T17:06:44.012Z,6.70
2022-12-04T17:09:12.268Z,6.70
2022-12-04T17:11:40.753Z,6.70
2022-12-04T17:14:10.933Z,6.60
2022-12-04T17:16:41.686Z,6.60
2022-12-04T17:19:10.258Z,6.60
2022-12-04T17:21:40.209Z,6.60
2022-12-04T17:24:08.781Z,6.50
2022-12-04T17:26:36.781Z,6.50
2022-12-04T17:29:05.141Z,6.60
2022-12-04T17:31:34.594Z,6.60
2022-12-04T17:34:02.592Z,6.60
2022-12-04T17:36:30.600Z,6.60
2022-12-04T17:39:01.876Z,6.60
2022-12-04T17:41:30.612Z,6.70
2022-12-04T17:44:00.733Z,6.70
2022-12-04T17:46:28.780Z,6.60
2022-12-04T17:49:01.595Z,6.60
2022-12-04T17:51:34.896Z,6.50
2022-12-04T17:54:02.941Z,6.50
2022-12-04T17:56:31.314Z,6.60
2022-12-04T17:58:59.377Z,6.60
2022-12-04T18:01:29.222Z,6.60
2022-12-04T18:04:03.150Z,6.60
2022-12-04T18:06:33.243Z,6.70
2022-12-04T18:09:01.738Z,6.60
2022-12-04T18:11:31.745Z,6.70
2022-12-04T18:14:05.916Z,6.60
2022-12-04T18:16:38.498Z,6.70
2022-12-04T18:19:08.202Z,6.70
2022-12-04T18:21:36.208Z,6.70
2022-12-04T18:24:05.460Z,6.70
2022-12-04T18:26:35.206Z,6.70
2022-12-04T18:29:03.671Z,6.70
2022-12-04T18:31:31.835Z,6.60
2022-12-04T18:33:59.921Z,6.60
2022-12-04T18:36:31.366Z,6.60
2022-12-04T18:39:01.336Z,6.70
2022-12-04T18:41:30.292Z,6.70
2022-12-04T18:43:59.902Z,6.70
2022-12-04T18:46:28.029Z,6.70
2022-12-04T18:48:58.811Z,6.70
2022-12-04T18:51:30.070Z,6.70
2022-12-04T18:53:59.929Z,6.60
2022-12-04T18:56:28.056Z,6.60
2022-12-04T18:59:00.220Z,6.60
2022-12-04T19:01:29.137Z,6.60
2022-12-04T19:03:58.306Z,6.60
2022-12-04T19:06:32.919Z,6.60
2022-12-04T19:09:02.409Z,6.60
2022-12-04T19:11:30.447Z,6.60
2022-12-04T19:13:58.946Z,6.60
2022-12-04T19:16:27.100Z,6.60
2022-12-04T19:18:55.995Z,6.60
2022-12-04T19:21:25.036Z,6.70
2022-12-04T19:23:58.139Z,6.70
2022-12-04T19:26:26.253Z,6.70
2022-12-04T19:28:55.058Z,6.70
2022-12-04T19:31:25.588Z,6.60
2022-12-04T19:33:56.531Z,6.60
2022-12-04T19:36:25.200Z,6.60
2022-12-04T19:38:54.590Z,6.60
2022-12-04T19:41:25.670Z,6.60
2022-12-04T19:43:57.177Z,6.60
2022-12-04T19:46:26.973Z,6.60
2022-12-04T19:48:58.250Z,6.70
2022-12-04T19:51:26.890Z,6.70
2022-12-04T19:53:56.298Z,6.70
2022-12-04T19:56:26.668Z,6.70
2022-12-04T19:58:57.126Z,6.70
2022-12-04T20:01:27.102Z,6.70
2022-12-04T20:03:55.490Z,6.70
2022-12-04T20:06:25.197Z,6.60
2022-12-04T20:08:57.683Z,6.60
2022-12-04T20:11:26.437Z,6.60
2022-12-04T20:13:55.641Z,6.60
2022-12-04T20:16:26.231Z,6.60
2022-12-04T20:18:54.907Z,6.60
2022-12-04T20:21:28.164Z,6.70
2022-12-04T20:23:59.056Z,6.70
2022-12-04T20:26:32.484Z,6.70
2022-12-04T20:29:02.085Z,6.70
2022-12-04T20:31:32.101Z,6.70
2022-12-04T20:34:02.320Z,6.70
2022-12-04T20:36:31.961Z,6.70
2022-12-04T20:39:01.307Z,6.70
2022-12-04T20:41:30.836Z,6.70
2022-12-04T20:44:01.580Z,6.70
2022-12-04T20:46:32.494Z,6.70
2022-12-04T20:49:01.626Z,6.60
2022-12-04T20:51:31.227Z,6.60
2022-12-04T20:54:01.476Z,6.60
2022-12-04T20:56:31.414Z,6.70
2022-12-04T20:59:00.578Z,6.70
2022-12-04T21:01:29.831Z,6.60
2022-12-04T21:04:00.256Z,6.60
2022-12-04T21:06:34.727Z,6.60
2022-12-04T21:09:06.507Z,6.60
2022-12-04T21:11:36.745Z,6.70
2022-12-04T21:14:24.736Z,6.70
2022-12-04T21:16:53.078Z,6.70
2022-12-04T21:19:23.725Z,6.70
2022-12-04T21:21:51.869Z,6.60
2022-12-04T21:24:22.632Z,6.70
2022-12-04T21:26:50.783Z,6.70
2022-12-04T21:29:18.946Z,6.60
2022-12-04T21:31:47.092Z,6.70
2022-12-04T21:34:17.543Z,6.70
2022-12-04T21:36:46.217Z,6.70
2022-12-04T21:39:15.035Z,6.70
2022-12-04T21:42:02.066Z,6.70
2022-12-04T21:44:30.187Z,6.60
2022-12-04T21:46:58.260Z,6.50
2022-12-04T21:49:26.426Z,6.60
2022-12-04T21:51:57.728Z,6.60
2022-12-04T21:54:27.294Z,6.50
2022-12-04T21:56:57.178Z,6.50
2022-12-04T21:59:25.892Z,6.60
2022-12-04T22:01:54.636Z,6.60
2022-12-04T22:04:23.265Z,6.60
2022-12-04T22:06:51.321Z,6.60
2022-12-04T22:09:19.585Z,6.60
2022-12-04T22:11:47.760Z,6.70
2022-12-04T22:14:17.099Z,6.60
2022-12-04T22:16:45.277Z,6.60
2022-12-04T22:19:13.990Z,6.60
2022-12-04T22:21:41.985Z,6.60
2022-12-04T22:24:11.342Z,6.60
2022-12-04T22:26:40.175Z,6.60
2022-12-04T22:29:34.226Z,6.60
2022-12-04T22:31:57.834Z,6.60
2022-12-04T22:34:25.856Z,6.60
2022-12-04T22:36:53.810Z,6.60
2022-12-04T22:39:21.803Z,6.60
2022-12-04T22:41:49.816Z,6.40
2022-12-04T22:44:17.807Z,6.50
2022-12-04T22:46:45.929Z,6.60
2022-12-04T22:49:15.713Z,6.60
2022-12-04T22:51:43.800Z,6.60
2022-12-04T22:54:14.303Z,6.60
2022-12-04T22:56:43.493Z,6.60
2022-12-04T22:59:11.523Z,6.60
2022-12-04T23:01:39.535Z,6.60
2022-12-04T23:04:07.706Z,6.60
2022-12-04T23:06:37.155Z,6.60
2022-12-04T23:09:07.988Z,6.60
2022-12-04T23:11:36.440Z,6.60
2022-12-04T23:14:07.212Z,6.60
2022-12-04T23:16:37.938Z,6.50
2022-12-04T23:19:06.790Z,6.50
2022-12-04T23:21:35.012Z,6.50
2022-12-04T23:24:04.919Z,6.60
2022-12-04T23:26:35.667Z,6.50
2022-12-04T23:29:05.339Z,6.50
2022-12-04T23:31:38.352Z,6.50
2022-12-04T23:34:07.239Z,6.50
2022-12-04T23:36:35.243Z,6.50
2022-12-04T23:39:04.862Z,6.50
2022-12-04T23:41:32.917Z,6.50
2022-12-04T23:44:00.946Z,6.50
2022-12-04T23:46:32.245Z,6.50
2022-12-04T23:49:00.713Z,6.60
2022-12-04T23:51:29.522Z,6.60
2022-12-04T23:53:58.040Z,6.40
2022-12-04T23:56:29.195Z,6.30
2022-12-04T23:58:58.657Z,6.30
